sensor_id;sensor_type;location;lat;lon;timestamp;P1;P4;P2;P0;N10;N4;N25;N1;N05;TS
72225;SPS30;60130;52.250;5.048;2023-08-24T00:00:00;2.70;;2.68;;;;;;;
72225;SPS30;60130;52.250;5.048;2023-08-24T00:05:00;2.22;;2.22;;;;;;;
72225;SPS30;60130;52.250;5.048;2023-08-24T00:10:00;2.23;;2.22;;;;;;;
72225;SPS30;60130;52.250;5.048;2023-08-24T00:15:00;2.60;;2.60;;;;;;;
72225;SPS30;60130;52.250;5.048;2023-08-24T00:20:00;2.58;;2.57;;;;;;;
72225;SPS30;60130;52.250;5.048;2023-08-24T00:25:00;2.02;;2.01;;;;;;;
72225;SPS30;60130;52.250;5.048;2023-08-24T00:30:00;3.35;;3.31;;;;;;;
72225;SPS30;60130;52.250;5.048;2023-08-24T00:35:00;2.39;;2.37;;;;;;;
72225;SPS30;60130;52.250;5.048;2023-08-24T00:40:00;2.69;;2.69;;;;;;;
72225;SPS30;60130;52.250;5.048;2023-08-24T00:45:00;2.62;;2.61;;;;;;;
72225;SPS30;60130;52.250;5.048;2023-08-24T00:50:00;3.20;;3.19;;;;;;;
72225;SPS30;60130;52.250;5.048;2023-08-24T00:55:00;2.44;;2.44;;;;;;;
72225;SPS30;60130;52.250;5.048;2023-08-24T01:00:02;2.63;;2.63;;;;;;;
72225;SPS30;60130;52.250;5.048;2023-08-24T01:05:00;2.32;;2.30;;;;;;;
72225;SPS30;60130;52.250;5.048;2023-08-24T01:10:00;2.97;;2.96;;;;;;;
72225;SPS30;60130;52.250;5.048;2023-08-24T01:15:02;3.11;;3.05;;;;;;;
72225;SPS30;60130;52.250;5.048;2023-08-24T01:20:01;2.79;;2.77;;;;;;;
72225;SPS30;60130;52.250;5.048;2023-08-24T01:25:02;2.90;;2.88;;;;;;;
72225;SPS30;60130;52.250;5.048;2023-08-24T01:30:00;2.42;;2.40;;;;;;;
72225;SPS30;60130;52.250;5.048;2023-08-24T01:35:00;2.63;;2.63;;;;;;;
72225;SPS30;60130;52.250;5.048;2023-08-24T01:40:01;3.08;;3.07;;;;;;;
72225;SPS30;60130;52.250;5.048;2023-08-24T01:45:00;3.10;;3.06;;;;;;;
72225;SPS30;60130;52.250;5.048;2023-08-24T01:50:00;3.42;;3.39;;;;;;;
72225;SPS30;60130;52.250;5.048;2023-08-24T01:55:00;3.52;;3.46;;;;;;;
72225;SPS30;60130;52.250;5.048;2023-08-24T02:00:00;3.64;;3.56;;;;;;;
72225;SPS30;60130;52.250;5.048;2023-08-24T02:05:00;4.05;;4.01;;;;;;;
72225;SPS30;60130;52.250;5.048;2023-08-24T02:10:00;4.38;;4.34;;;;;;;
72225;SPS30;60130;52.250;5.048;2023-08-24T02:15:00;3.71;;3.68;;;;;;;
72225;SPS30;60130;52.250;5.048;2023-08-24T02:20:00;4.11;;4.00;;;;;;;
72225;SPS30;60130;52.250;5.048;2023-08-24T02:25:00;4.21;;4.16;;;;;;;
72225;SPS30;60130;52.250;5.048;2023-08-24T02:30:00;4.28;;4.24;;;;;;;
72225;SPS30;60130;52.250;5.048;2023-08-24T02:35:00;4.14;;4.08;;;;;;;
72225;SPS30;60130;52.250;5.048;2023-08-24T02:40:00;4.26;;4.14;;;;;;;
72225;SPS30;60130;52.250;5.048;2023-08-24T02:45:00;4.69;;4.57;;;;;;;
72225;SPS30;60130;52.250;5.048;2023-08-24T02:50:00;4.92;;4.84;;;;;;;
72225;SPS30;60130;52.250;5.048;2023-08-24T02:55:00;4.55;;4.39;;;;;;;
72225;SPS30;60130;52.250;5.048;2023-08-24T03:00:00;4.50;;4.42;;;;;;;
72225;SPS30;60130;52.250;5.048;2023-08-24T03:05:00;4.92;;4.86;;;;;;;
72225;SPS30;60130;52.250;5.048;2023-08-24T03:10:00;4.97;;4.87;;;;;;;
72225;SPS30;60130;52.250;5.048;2023-08-24T03:15:00;4.59;;4.54;;;;;;;
72225;SPS30;60130;52.250;5.048;2023-08-24T03:20:00;4.90;;4.85;;;;;;;
72225;SPS30;60130;52.250;5.048;2023-08-24T03:25:00;5.40;;5.28;;;;;;;
72225;SPS30;60130;52.250;5.048;2023-08-24T03:30:00;4.85;;4.80;;;;;;;
72225;SPS30;60130;52.250;5.048;2023-08-24T03:35:00;5.40;;5.31;;;;;;;
72225;SPS30;60130;52.250;5.048;2023-08-24T03:40:00;5.21;;5.09;;;;;;;
72225;SPS30;60130;52.250;5.048;2023-08-24T03:45:00;5.61;;5.52;;;;;;;
72225;SPS30;60130;52.250;5.048;2023-08-24T03:50:00;4.98;;4.87;;;;;;;
72225;SPS30;60130;52.250;5.048;2023-08-24T03:55:00;5.16;;5.08;;;;;;;
72225;SPS30;60130;52.250;5.048;2023-08-24T04:00:00;5.36;;5.36;;;;;;;
72225;SPS30;60130;52.250;5.048;2023-08-24T04:05:00;4.94;;4.87;;;;;;;
72225;SPS30;60130;52.250;5.048;2023-08-24T04:10:00;5.19;;5.08;;;;;;;
72225;SPS30;60130;52.250;5.048;2023-08-24T04:15:00;5.75;;5.67;;;;;;;
72225;SPS30;60130;52.250;5.048;2023-08-24T04:20:00;5.42;;5.42;;;;;;;
72225;SPS30;60130;52.250;5.048;2023-08-24T04:25:00;5.26;;5.15;;;;;;;
72225;SPS30;60130;52.250;5.048;2023-08-24T04:30:00;5.77;;5.59;;;;;;;
72225;SPS30;60130;52.250;5.048;2023-08-24T04:35:00;5.70;;5.62;;;;;;;
72225;SPS30;60130;52.250;5.048;2023-08-24T04:40:00;5.35;;5.25;;;;;;;
72225;SPS30;60130;52.250;5.048;2023-08-24T04:45:00;5.26;;5.23;;;;;;;
72225;SPS30;60130;52.250;5.048;2023-08-24T04:50:00;5.26;;5.22;;;;;;;
72225;SPS30;60130;52.250;5.048;2023-08-24T04:55:00;5.49;;5.43;;;;;;;
72225;SPS30;60130;52.250;5.048;2023-08-24T05:00:00;5.57;;5.51;;;;;;;
72225;SPS30;60130;52.250;5.048;2023-08-24T05:05:00;5.63;;5.56;;;;;;;
72225;SPS30;60130;52.250;5.048;2023-08-24T05:10:00;5.36;;5.28;;;;;;;
72225;SPS30;60130;52.250;5.048;2023-08-24T05:15:00;6.17;;6.11;;;;;;;
72225;SPS30;60130;52.250;5.048;2023-08-24T05:20:00;5.84;;5.72;;;;;;;
72225;SPS30;60130;52.250;5.048;2023-08-24T05:25:00;5.86;;5.82;;;;;;;
72225;SPS30;60130;52.250;5.048;2023-08-24T05:30:00;5.56;;5.54;;;;;;;
72225;SPS30;60130;52.250;5.048;2023-08-24T05:35:00;5.38;;5.38;;;;;;;
72225;SPS30;60130;52.250;5.048;2023-08-24T05:40:00;5.42;;5.32;;;;;;;
72225;SPS30;60130;52.250;5.048;2023-08-24T05:45:00;5.95;;5.80;;;;;;;
72225;SPS30;60130;52.250;5.048;2023-08-24T05:50:00;5.63;;5.63;;;;;;;
72225;SPS30;60130;52.250;5.048;2023-08-24T05:55:00;4.77;;4.74;;;;;;;
72225;SPS30;60130;52.250;5.048;2023-08-24T06:00:00;5.60;;5.34;;;;;;;
72225;SPS30;60130;52.250;5.048;2023-08-24T06:05:00;4.87;;4.71;;;;;;;
72225;SPS30;60130;52.250;5.048;2023-08-24T06:10:00;5.12;;5.09;;;;;;;
72225;SPS30;60130;52.250;5.048;2023-08-24T06:15:00;5.06;;4.63;;;;;;;
72225;SPS30;60130;52.250;5.048;2023-08-24T06:20:00;4.98;;5.07;;;;;;;
72225;SPS30;60130;52.250;5.048;2023-08-24T06:25:00;4.54;;4.42;;;;;;;
72225;SPS30;60130;52.250;5.048;2023-08-24T06:30:00;5.16;;4.46;;;;;;;
72225;SPS30;60130;52.250;5.048;2023-08-24T06:35:00;4.49;;4.63;;;;;;;
72225;SPS30;60130;52.250;5.048;2023-08-24T06:40:00;3.92;;3.92;;;;;;;
72225;SPS30;60130;52.250;5.048;2023-08-24T06:45:00;4.02;;4.02;;;;;;;
72225;SPS30;60130;52.250;5.048;2023-08-24T06:50:00;5.23;;5.23;;;;;;;
72225;SPS30;60130;52.250;5.048;2023-08-24T06:55:00;5.16;;5.16;;;;;;;
72225;SPS30;60130;52.250;5.048;2023-08-24T07:00:00;4.84;;4.82;;;;;;;
72225;SPS30;60130;52.250;5.048;2023-08-24T07:05:00;4.64;;4.62;;;;;;;
72225;SPS30;60130;52.250;5.048;2023-08-24T07:10:00;4.96;;4.95;;;;;;;
72225;SPS30;60130;52.250;5.048;2023-08-24T07:15:00;4.56;;4.56;;;;;;;
72225;SPS30;60130;52.250;5.048;2023-08-24T07:20:00;4.31;;4.31;;;;;;;
72225;SPS30;60130;52.250;5.048;2023-08-24T07:25:00;5.13;;5.11;;;;;;;
72225;SPS30;60130;52.250;5.048;2023-08-24T07:30:00;4.61;;4.61;;;;;;;
72225;SPS30;60130;52.250;5.048;2023-08-24T07:35:00;5.63;;5.63;;;;;;;
72225;SPS30;60130;52.250;5.048;2023-08-24T07:40:00;5.29;;5.29;;;;;;;
72225;SPS30;60130;52.250;5.048;2023-08-24T07:45:00;5.36;;5.36;;;;;;;
72225;SPS30;60130;52.250;5.048;2023-08-24T07:50:00;5.38;;5.38;;;;;;;
72225;SPS30;60130;52.250;5.048;2023-08-24T07:55:00;6.00;;6.00;;;;;;;
72225;SPS30;60130;52.250;5.048;2023-08-24T08:00:00;6.76;;6.76;;;;;;;
72225;SPS30;60130;52.250;5.048;2023-08-24T08:05:00;5.65;;5.65;;;;;;;
72225;SPS30;60130;52.250;5.048;2023-08-24T08:10:00;5.79;;5.77;;;;;;;
72225;SPS30;60130;52.250;5.048;2023-08-24T08:15:00;5.32;;5.32;;;;;;;
72225;SPS30;60130;52.250;5.048;2023-08-24T08:20:00;5.86;;5.86;;;;;;;
72225;SPS30;60130;52.250;5.048;2023-08-24T08:25:00;5.21;;5.21;;;;;;;
72225;SPS30;60130;52.250;5.048;2023-08-24T08:30:00;5.47;;5.47;;;;;;;
72225;SPS30;60130;52.250;5.048;2023-08-24T08:35:00;5.82;;5.82;;;;;;;
72225;SPS30;60130;52.250;5.048;2023-08-24T08:40:00;5.99;;5.99;;;;;;;
72225;SPS30;60130;52.250;5.048;2023-08-24T08:45:00;5.09;;5.09;;;;;;;
72225;SPS30;60130;52.250;5.048;2023-08-24T08:50:00;5.66;;5.66;;;;;;;
72225;SPS30;60130;52.250;5.048;2023-08-24T08:55:00;4.48;;4.48;;;;;;;
72225;SPS30;60130;52.250;5.048;2023-08-24T09:00:00;4.92;;4.92;;;;;;;
72225;SPS30;60130;52.250;5.048;2023-08-24T09:05:00;4.73;;4.73;;;;;;;
72225;SPS30;60130;52.250;5.048;2023-08-24T09:10:00;4.18;;4.18;;;;;;;
72225;SPS30;60130;52.250;5.048;2023-08-24T09:15:02;5.52;;5.52;;;;;;;
72225;SPS30;60130;52.250;5.048;2023-08-24T09:20:00;4.74;;4.74;;;;;;;
72225;SPS30;60130;52.250;5.048;2023-08-24T09:25:00;4.98;;4.98;;;;;;;
72225;SPS30;60130;52.250;5.048;2023-08-24T09:30:00;3.97;;3.97;;;;;;;
72225;SPS30;60130;52.250;5.048;2023-08-24T09:35:02;4.04;;4.04;;;;;;;
72225;SPS30;60130;52.250;5.048;2023-08-24T09:40:00;4.62;;4.62;;;;;;;
72225;SPS30;60130;52.250;5.048;2023-08-24T09:45:02;4.03;;4.03;;;;;;;
72225;SPS30;60130;52.250;5.048;2023-08-24T09:50:00;4.44;;4.44;;;;;;;
72225;SPS30;60130;52.250;5.048;2023-08-24T09:55:02;4.06;;4.06;;;;;;;
72225;SPS30;60130;52.250;5.048;2023-08-24T10:00:00;5.04;;5.04;;;;;;;
72225;SPS30;60130;52.250;5.048;2023-08-24T10:05:00;4.53;;4.53;;;;;;;
72225;SPS30;60130;52.250;5.048;2023-08-24T10:10:02;5.42;;5.42;;;;;;;
72225;SPS30;60130;52.250;5.048;2023-08-24T10:15:00;4.43;;4.43;;;;;;;
72225;SPS30;60130;52.250;5.048;2023-08-24T10:20:00;5.31;;5.31;;;;;;;
72225;SPS30;60130;52.250;5.048;2023-08-24T10:25:00;5.41;;5.41;;;;;;;
72225;SPS30;60130;52.250;5.048;2023-08-24T10:30:00;5.06;;5.06;;;;;;;
72225;SPS30;60130;52.250;5.048;2023-08-24T10:35:00;4.77;;4.77;;;;;;;
72225;SPS30;60130;52.250;5.048;2023-08-24T10:40:00;4.75;;4.75;;;;;;;
72225;SPS30;60130;52.250;5.048;2023-08-24T10:45:00;5.30;;5.30;;;;;;;
72225;SPS30;60130;52.250;5.048;2023-08-24T10:50:00;5.39;;5.39;;;;;;;
72225;SPS30;60130;52.250;5.048;2023-08-24T10:55:01;5.82;;5.82;;;;;;;
72225;SPS30;60130;52.250;5.048;2023-08-24T11:00:02;5.83;;5.83;;;;;;;
72225;SPS30;60130;52.250;5.048;2023-08-24T11:05:03;5.38;;5.38;;;;;;;
72225;SPS30;60130;52.250;5.048;2023-08-24T11:10:10;5.67;;5.67;;;;;;;
72225;SPS30;60130;52.250;5.048;2023-08-24T11:15:00;5.40;;5.40;;;;;;;
72225;SPS30;60130;52.250;5.048;2023-08-24T11:20:00;5.84;;5.84;;;;;;;
72225;SPS30;60130;52.250;5.048;2023-08-24T11:25:00;6.74;;6.74;;;;;;;
72225;SPS30;60130;52.250;5.048;2023-08-24T11:30:00;7.05;;7.05;;;;;;;
72225;SPS30;60130;52.250;5.048;2023-08-24T11:35:00;7.82;;7.82;;;;;;;
72225;SPS30;60130;52.250;5.048;2023-08-24T11:40:00;8.32;;8.32;;;;;;;
72225;SPS30;60130;52.250;5.048;2023-08-24T11:45:00;7.46;;7.46;;;;;;;
72225;SPS30;60130;52.250;5.048;2023-08-24T11:50:00;9.55;;9.55;;;;;;;
72225;SPS30;60130;52.250;5.048;2023-08-24T11:55:00;10.22;;10.22;;;;;;;
72225;SPS30;60130;52.250;5.048;2023-08-24T12:00:00;10.36;;10.36;;;;;;;
72225;SPS30;60130;52.250;5.048;2023-08-24T12:05:00;10.51;;10.51;;;;;;;
72225;SPS30;60130;52.250;5.048;2023-08-24T12:10:00;10.04;;10.04;;;;;;;
72225;SPS30;60130;52.250;5.048;2023-08-24T12:15:00;11.02;;11.02;;;;;;;
72225;SPS30;60130;52.250;5.048;2023-08-24T12:20:00;10.46;;10.40;;;;;;;
72225;SPS30;60130;52.250;5.048;2023-08-24T12:25:00;10.36;;10.36;;;;;;;
72225;SPS30;60130;52.250;5.048;2023-08-24T12:30:01;9.02;;9.02;;;;;;;
72225;SPS30;60130;52.250;5.048;2023-08-24T12:35:00;9.60;;9.60;;;;;;;
72225;SPS30;60130;52.250;5.048;2023-08-24T12:40:00;9.07;;9.07;;;;;;;
72225;SPS30;60130;52.250;5.048;2023-08-24T12:45:00;10.89;;10.86;;;;;;;
72225;SPS30;60130;52.250;5.048;2023-08-24T12:50:00;10.36;;10.36;;;;;;;
72225;SPS30;60130;52.250;5.048;2023-08-24T12:55:00;9.20;;9.16;;;;;;;
72225;SPS30;60130;52.250;5.048;2023-08-24T13:00:00;9.76;;9.76;;;;;;;
72225;SPS30;60130;52.250;5.048;2023-08-24T13:05:00;8.99;;8.99;;;;;;;
72225;SPS30;60130;52.250;5.048;2023-08-24T13:10:00;8.52;;8.52;;;;;;;
72225;SPS30;60130;52.250;5.048;2023-08-24T13:15:00;8.69;;8.69;;;;;;;
72225;SPS30;60130;52.250;5.048;2023-08-24T13:20:00;9.13;;9.13;;;;;;;
72225;SPS30;60130;52.250;5.048;2023-08-24T13:25:00;9.32;;9.27;;;;;;;
72225;SPS30;60130;52.250;5.048;2023-08-24T13:30:00;9.21;;9.21;;;;;;;
72225;SPS30;60130;52.250;5.048;2023-08-24T13:35:00;8.18;;8.18;;;;;;;
72225;SPS30;60130;52.250;5.048;2023-08-24T13:40:00;8.63;;8.63;;;;;;;
72225;SPS30;60130;52.250;5.048;2023-08-24T13:45:00;9.02;;8.99;;;;;;;
72225;SPS30;60130;52.250;5.048;2023-08-24T13:50:00;9.32;;9.30;;;;;;;
72225;SPS30;60130;52.250;5.048;2023-08-24T13:55:00;8.06;;8.06;;;;;;;
72225;SPS30;60130;52.250;5.048;2023-08-24T14:00:00;7.87;;7.87;;;;;;;
72225;SPS30;60130;52.250;5.048;2023-08-24T14:05:00;7.93;;7.93;;;;;;;
72225;SPS30;60130;52.250;5.048;2023-08-24T14:10:00;8.40;;8.40;;;;;;;
72225;SPS30;60130;52.250;5.048;2023-08-24T14:15:00;8.06;;8.06;;;;;;;
72225;SPS30;60130;52.250;5.048;2023-08-24T14:20:00;8.07;;8.07;;;;;;;
72225;SPS30;60130;52.250;5.048;2023-08-24T14:25:00;9.46;;9.46;;;;;;;
72225;SPS30;60130;52.250;5.048;2023-08-24T14:30:00;8.56;;8.56;;;;;;;
72225;SPS30;60130;52.250;5.048;2023-08-24T14:35:00;8.26;;8.26;;;;;;;
72225;SPS30;60130;52.250;5.048;2023-08-24T14:40:00;9.16;;9.16;;;;;;;
72225;SPS30;60130;52.250;5.048;2023-08-24T14:45:00;9.29;;9.29;;;;;;;
72225;SPS30;60130;52.250;5.048;2023-08-24T14:50:00;9.03;;9.03;;;;;;;
72225;SPS30;60130;52.250;5.048;2023-08-24T14:55:00;9.95;;9.95;;;;;;;
72225;SPS30;60130;52.250;5.048;2023-08-24T15:00:00;9.63;;9.63;;;;;;;
72225;SPS30;60130;52.250;5.048;2023-08-24T15:05:00;8.88;;8.88;;;;;;;
72225;SPS30;60130;52.250;5.048;2023-08-24T15:10:00;8.62;;8.62;;;;;;;
72225;SPS30;60130;52.250;5.048;2023-08-24T15:15:01;8.79;;8.79;;;;;;;
72225;SPS30;60130;52.250;5.048;2023-08-24T15:20:00;8.62;;8.62;;;;;;;
72225;SPS30;60130;52.250;5.048;2023-08-24T15:25:00;9.00;;9.00;;;;;;;
72225;SPS30;60130;52.250;5.048;2023-08-24T15:30:00;9.60;;9.60;;;;;;;
72225;SPS30;60130;52.250;5.048;2023-08-24T15:35:00;9.14;;9.14;;;;;;;
72225;SPS30;60130;52.250;5.048;2023-08-24T15:40:00;10.16;;10.08;;;;;;;
72225;SPS30;60130;52.250;5.048;2023-08-24T15:45:00;8.95;;8.95;;;;;;;
72225;SPS30;60130;52.250;5.048;2023-08-24T15:50:00;10.13;;10.13;;;;;;;
72225;SPS30;60130;52.250;5.048;2023-08-24T15:55:00;9.02;;9.02;;;;;;;
72225;SPS30;60130;52.250;5.048;2023-08-24T16:00:00;9.23;;9.23;;;;;;;
72225;SPS30;60130;52.250;5.048;2023-08-24T16:05:00;9.21;;9.21;;;;;;;
72225;SPS30;60130;52.250;5.048;2023-08-24T16:10:00;9.87;;9.87;;;;;;;
72225;SPS30;60130;52.250;5.048;2023-08-24T16:15:00;10.35;;10.35;;;;;;;
72225;SPS30;60130;52.250;5.048;2023-08-24T16:20:01;8.96;;8.96;;;;;;;
72225;SPS30;60130;52.250;5.048;2023-08-24T16:25:00;8.66;;8.66;;;;;;;
72225;SPS30;60130;52.250;5.048;2023-08-24T16:30:00;9.49;;9.49;;;;;;;
72225;SPS30;60130;52.250;5.048;2023-08-24T16:35:00;8.74;;8.74;;;;;;;
72225;SPS30;60130;52.250;5.048;2023-08-24T16:40:00;8.29;;8.29;;;;;;;
72225;SPS30;60130;52.250;5.048;2023-08-24T16:45:00;7.84;;7.84;;;;;;;
72225;SPS30;60130;52.250;5.048;2023-08-24T16:50:00;7.69;;7.69;;;;;;;
72225;SPS30;60130;52.250;5.048;2023-08-24T16:55:00;7.53;;7.53;;;;;;;
72225;SPS30;60130;52.250;5.048;2023-08-24T17:00:00;6.99;;6.99;;;;;;;
72225;SPS30;60130;52.250;5.048;2023-08-24T17:05:01;7.42;;7.42;;;;;;;
72225;SPS30;60130;52.250;5.048;2023-08-24T17:10:00;7.78;;7.78;;;;;;;
72225;SPS30;60130;52.250;5.048;2023-08-24T17:15:00;7.39;;7.39;;;;;;;
72225;SPS30;60130;52.250;5.048;2023-08-24T17:20:00;6.11;;6.11;;;;;;;
72225;SPS30;60130;52.250;5.048;2023-08-24T17:25:00;7.48;;7.47;;;;;;;
72225;SPS30;60130;52.250;5.048;2023-08-24T17:30:00;6.03;;6.03;;;;;;;
72225;SPS30;60130;52.250;5.048;2023-08-24T17:35:00;5.58;;5.58;;;;;;;
72225;SPS30;60130;52.250;5.048;2023-08-24T17:40:00;5.27;;5.27;;;;;;;
72225;SPS30;60130;52.250;5.048;2023-08-24T17:45:00;4.78;;4.78;;;;;;;
72225;SPS30;60130;52.250;5.048;2023-08-24T17:50:00;5.59;;5.59;;;;;;;
72225;SPS30;60130;52.250;5.048;2023-08-24T17:55:00;6.23;;6.23;;;;;;;
72225;SPS30;60130;52.250;5.048;2023-08-24T18:00:00;5.92;;5.92;;;;;;;
72225;SPS30;60130;52.250;5.048;2023-08-24T18:05:00;5.02;;5.02;;;;;;;
72225;SPS30;60130;52.250;5.048;2023-08-24T18:10:00;4.63;;4.63;;;;;;;
72225;SPS30;60130;52.250;5.048;2023-08-24T18:15:00;5.46;;5.46;;;;;;;
72225;SPS30;60130;52.250;5.048;2023-08-24T18:20:00;5.12;;5.12;;;;;;;
72225;SPS30;60130;52.250;5.048;2023-08-24T18:25:00;5.45;;5.45;;;;;;;
72225;SPS30;60130;52.250;5.048;2023-08-24T22:15:00;9.41;;9.37;;;;;;;
72225;SPS30;60130;52.250;5.048;2023-08-24T22:20:00;9.69;;9.60;;;;;;;
72225;SPS30;60130;52.250;5.048;2023-08-24T22:25:00;8.88;;8.88;;;;;;;
72225;SPS30;60130;52.250;5.048;2023-08-24T22:30:00;9.84;;9.78;;;;;;;
72225;SPS30;60130;52.250;5.048;2023-08-24T22:35:00;9.82;;9.81;;;;;;;
72225;SPS30;60130;52.250;5.048;2023-08-24T22:40:00;10.37;;10.33;;;;;;;
72225;SPS30;60130;52.250;5.048;2023-08-24T22:45:00;10.64;;10.54;;;;;;;
72225;SPS30;60130;52.250;5.048;2023-08-24T22:50:01;11.36;;11.24;;;;;;;
72225;SPS30;60130;52.250;5.048;2023-08-24T22:55:00;9.51;;9.44;;;;;;;
72225;SPS30;60130;52.250;5.048;2023-08-24T23:00:00;10.91;;10.91;;;;;;;
72225;SPS30;60130;52.250;5.048;2023-08-24T23:05:00;10.52;;10.52;;;;;;;
72225;SPS30;60130;52.250;5.048;2023-08-24T23:10:00;11.09;;11.09;;;;;;;
72225;SPS30;60130;52.250;5.048;2023-08-24T23:15:00;11.68;;11.54;;;;;;;
72225;SPS30;60130;52.250;5.048;2023-08-24T23:20:00;11.46;;11.46;;;;;;;
72225;SPS30;60130;52.250;5.048;2023-08-24T23:25:00;12.13;;12.00;;;;;;;
72225;SPS30;60130;52.250;5.048;2023-08-24T23:30:00;11.20;;11.20;;;;;;;
72225;SPS30;60130;52.250;5.048;2023-08-24T23:35:00;12.26;;12.08;;;;;;;
72225;SPS30;60130;52.250;5.048;2023-08-24T23:40:00;12.09;;12.06;;;;;;;
72225;SPS30;60130;52.250;5.048;2023-08-24T23:45:00;12.69;;12.69;;;;;;;
72225;SPS30;60130;52.250;5.048;2023-08-24T23:50:00;12.47;;12.39;;;;;;;
72225;SPS30;60130;52.250;5.048;2023-08-24T23:55:00;13.32;;13.04;;;;;;;
